Time;durP1;ratioP1;P1;durP2;ratioP2;P2;SDS_P1;SDS_P2;PMS_P1;PMS_P2;Temp;Humidity;BMP_temperature;BMP_pressure;BME280_temperature;BME280_humidity;BME280_pressure;Samples;Min_cycle;Max_cycle;Signal;HPM_P1;HPM_P2
2022/05/06 00:02:07;;;;;;;20.62;13.10;;;;;;;15.38;64.43;101050.41;1694972;83;27471;-78
2022/05/06 00:04:34;;;;;;;28.05;13.28;;;;;;;15.39;64.45;101045.86;1701997;83;26556;-77
2022/05/06 00:07:01;;;;;;;17.55;12.68;;;;;;;15.40;64.37;101040.24;1713729;83;25941;-78
2022/05/06 00:09:27;;;;;;;22.00;13.30;;;;;;;15.38;64.52;101044.18;1716646;83;26517;-78
2022/05/06 00:11:53;;;;;;;22.10;13.70;;;;;;;15.33;64.38;101036.70;1717208;83;25296;-78
2022/05/06 00:14:20;;;;;;;17.62;14.23;;;;;;;15.32;64.58;101035.56;1717211;83;27441;-80
2022/05/06 00:16:47;;;;;;;19.92;13.30;;;;;;;15.31;64.81;101028.52;1716888;83;26537;-79
2022/05/06 00:19:13;;;;;;;23.92;13.85;;;;;;;15.26;64.91;101031.00;1717129;83;25818;-79
2022/05/06 00:21:40;;;;;;;18.07;13.68;;;;;;;15.22;65.19;101025.20;1706746;83;26539;-79
2022/05/06 00:24:06;;;;;;;18.65;13.48;;;;;;;15.17;65.08;101032.23;1709470;83;25967;-79
2022/05/06 00:26:32;;;;;;;18.55;13.38;;;;;;;15.14;65.29;101030.77;1699743;83;28376;-79
2022/05/06 00:28:59;;;;;;;19.70;14.65;;;;;;;15.15;65.45;101023.52;1700258;82;25833;-79
2022/05/06 00:31:25;;;;;;;17.37;14.33;;;;;;;15.15;65.80;101020.30;1714381;83;25733;-78
2022/05/06 00:33:51;;;;;;;15.43;13.15;;;;;;;15.12;66.00;101019.89;1717291;83;25849;-79
2022/05/06 00:36:18;;;;;;;19.85;14.93;;;;;;;15.08;66.14;101014.56;1717546;82;25941;-79
2022/05/06 00:38:44;;;;;;;19.77;14.35;;;;;;;15.09;65.99;101018.94;1717076;83;27436;-79
2022/05/06 00:41:10;;;;;;;19.10;14.50;;;;;;;15.09;66.25;101021.13;1717475;83;25938;-79
2022/05/06 00:43:41;;;;;;;21.37;16.05;;;;;;;15.08;66.42;101025.36;1668109;83;25822;-79
2022/05/06 00:46:14;;;;;;;20.52;14.35;;;;;;;15.07;66.35;101022.37;1684026;84;25763;-79
2022/05/06 00:48:47;;;;;;;23.18;15.28;;;;;;;15.09;66.55;101029.23;1693983;83;26527;-78
2022/05/06 00:51:15;;;;;;;19.45;14.95;;;;;;;15.11;66.66;101025.80;1675932;84;28099;-78
2022/05/06 00:53:43;;;;;;;23.10;15.88;;;;;;;15.15;66.69;101031.09;1668020;83;25907;-78
2022/05/06 00:56:12;;;;;;;19.85;15.13;;;;;;;15.16;66.62;101035.98;1669695;85;25893;-78
2022/05/06 00:58:39;;;;;;;22.98;15.35;;;;;;;15.15;66.69;101031.09;1690990;83;25931;-79
2022/05/06 01:01:06;;;;;;;21.65;15.32;;;;;;;15.15;66.64;101035.14;1690357;83;26119;-78
2022/05/06 01:03:33;;;;;;;30.68;14.78;;;;;;;15.17;66.71;101026.83;1692414;83;28270;-78
2022/05/06 01:06:04;;;;;;;20.25;15.23;;;;;;;15.18;66.84;101027.97;1670672;84;25860;-79
2022/05/06 01:08:31;;;;;;;18.77;16.90;;;;;;;15.16;66.58;101032.74;1639914;85;25788;-78
2022/05/06 01:10:58;;;;;;;25.10;20.72;;;;;;;15.12;66.61;101037.44;1648490;85;26016;-78
2022/05/06 01:13:24;;;;;;;24.82;19.17;;;;;;;15.08;66.72;101042.90;1689175;83;26118;-79
2022/05/06 01:15:57;;;;;;;24.95;15.78;;;;;;;15.05;66.54;101047.37;1717324;83;27446;-78
2022/05/06 01:18:25;;;;;;;23.55;17.15;;;;;;;15.05;66.66;101054.96;1717147;83;25871;-77
2022/05/06 01:20:54;;;;;;;19.20;15.55;;;;;;;15.06;66.69;101053.07;1717554;83;25792;-77
2022/05/06 01:23:22;;;;;;;19.42;15.85;;;;;;;15.06;66.66;101053.07;1717279;83;26578;-78
2022/05/06 01:25:49;;;;;;;20.12;15.40;;;;;;;15.05;66.70;101062.21;1705390;83;25813;-78
2022/05/06 01:28:16;;;;;;;19.10;15.18;;;;;;;15.02;66.81;101063.95;1716743;83;27515;-78
2022/05/06 01:30:49;;;;;;;26.15;15.72;;;;;;;15.00;66.86;101060.64;1705827;83;26433;-78
2022/05/06 01:33:21;;;;;;;20.52;15.90;;;;;;;14.98;66.96;101066.75;1717044;83;25980;-78
2022/05/06 01:35:58;;;;;;;23.45;16.10;;;;;;;14.95;67.20;101070.69;1712555;83;26590;-77
2022/05/06 01:38:46;;;;;;;19.80;15.10;;;;;;;14.92;67.30;101069.77;1701651;82;26540;-78
2022/05/06 01:41:21;;;;;;;27.60;15.90;;;;;;;14.89;67.24;101070.67;1702258;83;27474;-78
2022/05/06 01:43:57;;;;;;;21.02;15.48;;;;;;;14.85;67.38;101078.85;1697002;83;26339;-78
2022/05/06 01:46:26;;;;;;;21.25;15.03;;;;;;;14.85;67.54;101082.39;1673506;83;25759;-78
2022/05/06 01:48:56;;;;;;;22.82;16.02;;;;;;;14.84;67.77;101082.59;1674788;83;27030;-78
2022/05/06 01:51:26;;;;;;;23.98;16.97;;;;;;;14.82;67.98;101083.32;1654114;84;25901;-78
2022/05/06 01:53:53;;;;;;;21.60;16.23;;;;;;;14.77;67.92;101079.88;1663564;85;27536;-78
2022/05/06 01:56:21;;;;;;;21.17;16.30;;;;;;;14.77;68.25;101082.58;1707267;83;26029;-78
2022/05/06 01:58:49;;;;;;;19.50;15.70;;;;;;;14.74;68.32;101083.47;1672307;84;25846;-78
2022/05/06 02:01:16;;;;;;;19.37;15.53;;;;;;;14.70;68.55;101081.71;1665578;85;25782;-78
2022/05/06 02:06:30;;;;;;;24.10;15.65;;;;;;;14.61;68.66;101085.61;1702090;83;28082;-79
2022/05/06 02:08:58;;;;;;;24.10;15.40;;;;;;;14.55;68.81;101082.38;1696588;82;25942;-79
2022/05/06 02:11:26;;;;;;;19.95;16.48;;;;;;;14.53;69.09;101079.05;1711322;83;26489;-79
2022/05/06 02:13:55;;;;;;;22.17;15.55;;;;;;;14.52;69.07;101086.30;1717043;83;26448;-79
2022/05/06 02:16:31;;;;;;;21.90;16.37;;;;;;;14.51;69.07;101083.30;1715996;83;26448;-79
2022/05/06 02:19:18;;;;;;;21.85;16.48;;;;;;;14.51;69.17;101078.42;1716226;83;27434;-79
2022/05/06 02:21:55;;;;;;;20.48;15.50;;;;;;;14.52;69.20;101078.75;1702380;83;25814;-79
2022/05/06 02:24:23;;;;;;;19.62;16.42;;;;;;;14.50;69.35;101073.53;1696232;83;26033;-79
2022/05/06 02:26:54;;;;;;;26.68;16.70;;;;;;;14.52;69.49;101072.01;1704887;83;26944;-78
2022/05/06 02:29:21;;;;;;;24.63;15.75;;;;;;;14.51;69.59;101066.29;1703492;83;25492;-78
2022/05/06 02:34:34;;;;;;;22.93;16.97;;;;;;;14.48;69.92;101064.82;1715645;83;25844;-78
2022/05/06 02:37:03;;;;;;;18.90;15.00;;;;;;;14.44;69.92;101062.21;1698090;83;25926;-78
2022/05/06 02:39:32;;;;;;;19.40;15.70;;;;;;;14.42;69.95;101068.32;1691298;83;26605;-79
2022/05/06 02:42:00;;;;;;;21.45;15.83;;;;;;;14.41;69.90;101069.88;1699559;83;25853;-78
2022/05/06 02:44:27;;;;;;;18.98;15.00;;;;;;;14.40;70.08;101066.34;1702679;83;27516;-79
2022/05/06 02:46:55;;;;;;;19.05;14.63;;;;;;;14.41;70.24;101066.64;1700333;83;25738;-78
2022/05/06 02:49:21;;;;;;;23.10;15.72;;;;;;;14.39;70.09;101071.95;1700058;83;25863;-79
2022/05/06 02:51:47;;;;;;;22.55;15.18;;;;;;;14.36;70.21;101072.33;1702843;83;25775;-78
2022/05/06 02:54:21;;;;;;;22.10;15.63;;;;;;;14.34;70.29;101070.35;1667724;84;26192;-78
2022/05/06 02:56:43;;;;;;;18.67;15.38;;;;;;;14.29;70.26;101078.19;1710872;83;28274;-78
2022/05/06 02:59:11;;;;;;;20.12;15.15;;;;;;;14.26;70.45;101082.62;1700249;83;25786;-78
2022/05/06 03:01:40;;;;;;;20.55;16.05;;;;;;;14.25;70.62;101087.67;1705176;83;26425;-78
2022/05/06 03:04:12;;;;;;;20.12;15.45;;;;;;;14.20;70.57;101096.35;1709201;83;25806;-78
2022/05/06 03:06:38;;;;;;;23.32;16.85;;;;;;;14.20;70.67;101092.84;1717047;83;26083;-78
2022/05/06 03:09:05;;;;;;;22.82;14.58;;;;;;;14.15;70.74;101097.48;1715916;83;28319;-78
2022/05/06 03:11:33;;;;;;;20.62;14.85;;;;;;;14.10;70.84;101100.43;1717562;83;26324;-78
2022/05/06 03:14:01;;;;;;;23.45;14.45;;;;;;;14.07;71.00;101107.04;1716166;83;25788;-77
2022/05/06 03:16:29;;;;;;;24.47;14.55;;;;;;;14.08;71.26;101108.72;1716719;83;26417;-77
2022/05/06 03:18:56;;;;;;;20.32;15.28;;;;;;;14.03;71.42;101101.73;1707986;83;25796;-77
2022/05/06 03:21:22;;;;;;;21.93;15.68;;;;;;;14.02;71.34;101101.94;1710486;83;27614;-79
2022/05/06 03:23:53;;;;;;;20.50;15.80;;;;;;;13.99;71.34;101105.02;1706947;83;26537;-78
2022/05/06 03:26:19;;;;;;;23.92;15.72;;;;;;;13.96;71.43;101104.08;1717472;83;25753;-79
2022/05/06 03:28:46;;;;;;;19.23;15.48;;;;;;;13.96;71.70;101110.81;1717001;82;25828;-79
2022/05/06 03:31:13;;;;;;;22.98;15.83;;;;;;;13.97;71.61;101108.42;1691466;83;25919;-77
2022/05/06 03:33:42;;;;;;;21.30;15.95;;;;;;;13.95;71.53;101115.36;1658578;85;29072;-78
2022/05/06 03:36:12;;;;;;;23.45;15.93;;;;;;;13.95;71.65;101112.66;1659210;86;25808;-78
2022/05/06 03:38:40;;;;;;;27.77;16.32;;;;;;;13.94;71.53;101110.47;1658886;86;26010;-78
2022/05/06 03:41:08;;;;;;;30.37;16.90;;;;;;;13.94;71.62;101115.05;1675773;85;26717;-78
2022/05/06 03:43:34;;;;;;;21.02;15.98;;;;;;;13.96;71.69;101120.23;1663106;84;26027;-78
2022/05/06 03:46:03;;;;;;;22.73;15.93;;;;;;;13.94;71.74;101115.05;1677921;84;27449;-78
2022/05/06 03:48:29;;;;;;;19.32;16.60;;;;;;;13.93;72.06;101122.80;1649292;85;26007;-78
2022/05/06 03:53:53;;;;;;;23.15;17.85;;;;;;;13.85;71.93;101121.61;1676030;85;25995;-78
2022/05/06 03:56:25;;;;;;;22.27;16.75;;;;;;;13.80;72.25;101124.87;1661158;85;25907;-77
2022/05/06 03:58:52;;;;;;;22.32;16.85;;;;;;;13.78;72.31;101138.21;1684512;83;27977;-78
2022/05/06 04:01:19;;;;;;;27.15;17.37;;;;;;;13.72;72.39;101135.80;1717349;83;25901;-78
2022/05/06 04:03:48;;;;;;;19.62;16.37;;;;;;;13.69;72.50;101141.55;1703607;83;25823;-77
2022/05/06 04:06:15;;;;;;;21.05;15.30;;;;;;;13.66;72.96;101138.43;1717781;83;25796;-78
2022/05/06 04:08:43;;;;;;;23.12;15.08;;;;;;;13.63;73.16;101142.34;1717183;83;25747;-78
2022/05/06 04:11:11;;;;;;;19.37;14.80;;;;;;;13.58;72.75;101146.11;1717542;83;28269;-78
2022/05/06 04:13:37;;;;;;;20.05;15.13;;;;;;;13.58;72.66;101146.64;1716801;83;25760;-78
2022/05/06 04:16:07;;;;;;;20.15;15.28;;;;;;;13.59;72.50;101153.17;1717456;83;25710;-78
2022/05/06 04:18:33;;;;;;;19.65;15.05;;;;;;;13.59;72.94;101154.52;1716843;83;25933;-78
2022/05/06 04:23:45;;;;;;;20.97;14.05;;;;;;;13.56;72.92;101160.78;1712209;83;27645;-77
2022/05/06 04:26:13;;;;;;;20.68;14.70;;;;;;;13.57;72.82;101163.80;1715708;83;25855;-77
2022/05/06 04:28:44;;;;;;;21.15;15.00;;;;;;;13.54;73.08;101165.02;1712838;83;25337;-77
2022/05/06 04:31:11;;;;;;;18.55;13.95;;;;;;;13.50;73.51;101157.52;1717291;83;26555;-77
2022/05/06 04:33:40;;;;;;;18.80;13.95;;;;;;;13.44;73.34;101159.63;1717125;83;25837;-78
2022/05/06 04:36:09;;;;;;;17.65;14.30;;;;;;;13.40;73.73;101157.84;1717406;83;27366;-77
2022/05/06 04:38:36;;;;;;;18.17;14.53;;;;;;;13.38;73.71;101164.44;1717274;83;25873;-78
2022/05/06 04:41:04;;;;;;;17.00;13.85;;;;;;;13.41;73.83;101160.84;1710020;83;25929;-77
2022/05/06 04:43:32;;;;;;;15.63;13.70;;;;;;;13.41;73.94;101170.80;1693438;83;25877;-77
2022/05/06 04:45:58;;;;;;;18.80;13.58;;;;;;;13.44;74.50;101170.40;1717433;83;26332;-78
2022/05/06 04:48:26;;;;;;;19.90;15.30;;;;;;;13.42;74.14;101177.83;1716807;83;28293;-77
2022/05/06 04:50:53;;;;;;;18.92;14.33;;;;;;;13.43;74.16;101170.09;1717578;83;25818;-77
2022/05/06 04:53:19;;;;;;;20.97;14.05;;;;;;;13.43;74.21;101176.82;1717137;83;25765;-77
2022/05/06 04:55:48;;;;;;;17.42;14.20;;;;;;;13.46;74.30;101178.61;1717337;83;26555;-77
2022/05/06 04:58:18;;;;;;;20.00;14.33;;;;;;;13.48;74.32;101183.78;1717060;83;25329;-77
2022/05/06 05:00:45;;;;;;;19.35;13.53;;;;;;;13.51;74.49;101185.61;1692790;83;27534;-77
2022/05/06 05:03:12;;;;;;;20.70;13.90;;;;;;;13.49;75.01;101186.81;1717080;83;25958;-77
2022/05/06 05:05:38;;;;;;;17.42;14.53;;;;;;;13.44;75.00;101184.70;1717461;83;25804;-77
2022/05/06 05:08:08;;;;;;;16.75;14.55;;;;;;;13.47;75.34;101188.87;1709299;83;26652;-77
2022/05/06 05:10:34;;;;;;;17.75;13.85;;;;;;;13.43;75.64;101190.28;1710917;82;26582;-77
2022/05/06 05:13:01;;;;;;;18.60;14.55;;;;;;;13.43;75.82;101191.62;1700523;83;27534;-78
2022/05/06 05:15:30;;;;;;;22.30;15.03;;;;;;;13.40;75.89;101194.17;1710112;83;25888;-77
2022/05/06 05:17:57;;;;;;;21.65;16.25;;;;;;;13.40;76.44;101197.38;1695731;82;25754;-78
2022/05/06 05:20:25;;;;;;;17.42;14.87;;;;;;;13.37;76.32;101198.58;1693749;83;25991;-77
2022/05/06 05:22:53;;;;;;;19.23;15.18;;;;;;;13.39;76.51;101209.14;1705944;83;25372;-77
2022/05/06 05:25:19;;;;;;;20.52;14.85;;;;;;;13.39;76.56;101208.64;1717805;82;27419;-77
2022/05/06 05:27:46;;;;;;;20.12;16.60;;;;;;;13.41;76.68;101218.70;1716632;83;26624;-77
2022/05/06 05:30:14;;;;;;;20.55;16.07;;;;;;;13.41;76.79;101220.58;1716346;83;25892;-77
2022/05/06 05:32:40;;;;;;;18.42;14.90;;;;;;;13.44;76.98;101216.98;1705940;83;27215;-77
2022/05/06 05:35:08;;;;;;;20.72;15.38;;;;;;;13.45;77.26;101212.45;1717474;83;25930;-77
2022/05/06 05:37:37;;;;;;;23.35;16.40;;;;;;;13.45;77.65;101210.56;1717149;83;27700;-77
2022/05/06 05:40:08;;;;;;;24.18;16.48;;;;;;;13.45;77.28;101215.14;1717128;83;26550;-77
2022/05/06 05:42:36;;;;;;;19.23;16.75;;;;;;;13.47;77.35;101217.94;1714504;83;25773;-77
2022/05/06 05:50:36;;;;;;;24.70;18.60;;;;;;;13.50;77.81;101218.91;1687136;84;27453;-77
2022/05/06 05:53:05;;;;;;;21.10;17.73;;;;;;;13.52;77.99;101222.24;1707983;83;25942;-77
2022/05/06 05:55:31;;;;;;;24.32;17.87;;;;;;;13.49;78.07;101229.38;1717366;83;25331;-77
2022/05/06 05:57:58;;;;;;;24.95;19.62;;;;;;;13.51;77.94;101227.83;1716997;83;26251;-77
2022/05/06 06:00:27;;;;;;;28.27;21.40;;;;;;;13.55;78.13;101227.77;1717524;83;25832;-76
2022/05/06 06:02:55;;;;;;;28.52;22.75;;;;;;;13.58;78.31;101232.78;1717140;83;28271;-76
2022/05/06 06:05:23;;;;;;;32.70;25.32;;;;;;;13.57;78.58;101234.63;1717052;83;25766;-77
2022/05/06 06:07:49;;;;;;;28.15;24.77;;;;;;;13.52;78.43;101237.55;1717066;83;25384;-77
2022/05/06 06:10:18;;;;;;;31.70;26.60;;;;;;;13.51;78.50;101242.63;1717286;83;26352;-77
2022/05/06 06:12:45;;;;;;;30.60;26.37;;;;;;;13.51;78.70;101248.86;1692409;83;25825;-77
2022/05/06 06:15:12;;;;;;;30.90;26.77;;;;;;;13.51;78.93;101246.16;1717361;83;27593;-77
2022/05/06 06:17:38;;;;;;;34.70;26.48;;;;;;;13.52;79.22;101248.32;1707773;83;25921;-77
2022/05/06 06:20:07;;;;;;;33.75;26.23;;;;;;;13.50;79.51;101251.72;1696737;83;26419;-77
2022/05/06 06:22:35;;;;;;;31.87;26.15;;;;;;;13.50;79.39;101253.91;1705863;83;26619;-77
2022/05/06 06:25:06;;;;;;;30.20;25.57;;;;;;;13.55;79.48;101253.34;1717354;83;25828;-77
2022/05/06 06:27:34;;;;;;;30.02;23.57;;;;;;;13.62;79.95;101259.64;1692130;83;28381;-77
2022/05/06 06:30:04;;;;;;;29.30;23.15;;;;;;;13.60;79.92;101254.42;1716717;83;25972;-77
2022/05/06 06:32:32;;;;;;;29.75;23.45;;;;;;;13.60;79.87;101257.65;1716942;83;26530;-77
2022/05/06 06:34:58;;;;;;;25.77;23.02;;;;;;;13.65;80.48;101254.69;1717121;83;25935;-77
2022/05/06 06:37:27;;;;;;;29.32;22.45;;;;;;;13.69;80.20;101252.44;1716799;83;25943;-77
2022/05/06 06:39:54;;;;;;;27.05;21.70;;;;;;;13.72;81.05;101250.22;1717346;83;27706;-76
2022/05/06 06:42:20;;;;;;;28.77;20.80;;;;;;;13.73;80.68;101250.53;1716847;83;25935;-77
2022/05/06 06:45:00;;;;;;;27.98;22.17;;;;;;;13.82;81.22;101253.93;1652535;86;25794;-77
2022/05/06 06:47:37;;;;;;;30.62;23.60;;;;;;;13.94;80.95;101264.53;1650399;85;25959;-77
2022/05/06 06:50:20;;;;;;;27.15;21.20;;;;;;;14.10;81.26;101256.17;1700590;83;25991;-77
2022/05/06 06:52:54;;;;;;;26.40;22.73;;;;;;;14.21;80.99;101255.66;1707235;83;28306;-77
2022/05/06 06:55:21;;;;;;;27.82;23.55;;;;;;;14.35;80.97;101246.67;1712061;83;25838;-77
2022/05/06 06:57:47;;;;;;;30.70;27.40;;;;;;;14.39;80.79;101257.91;1710382;83;25575;-77
2022/05/06 07:00:14;;;;;;;31.25;27.85;;;;;;;14.45;80.39;101257.97;1713687;83;26529;-77
2022/05/06 07:02:45;;;;;;;34.85;28.85;;;;;;;14.55;79.87;101257.10;1714020;83;26421;-77
2022/05/06 07:05:10;;;;;;;33.23;28.73;;;;;;;14.60;79.19;101257.86;1715827;83;27578;-77
2022/05/06 07:12:53;;;;;;;32.90;27.10;;;;;;;14.81;79.29;101245.66;1717356;83;25800;-77
2022/05/06 07:15:19;;;;;;;30.97;27.65;;;;;;;14.86;78.63;101249.95;1717569;83;26471;-77
2022/05/06 07:17:45;;;;;;;30.90;27.15;;;;;;;14.87;79.02;101254.30;1717794;83;27602;-77
2022/05/06 07:20:11;;;;;;;34.65;30.90;;;;;;;14.92;79.44;101257.24;1717596;83;26575;-77
2022/05/06 07:22:38;;;;;;;34.30;30.08;;;;;;;14.98;78.59;101260.99;1701382;82;25979;-77
2022/05/06 07:25:06;;;;;;;38.50;31.60;;;;;;;15.06;78.16;101259.47;1716476;83;25888;-77
2022/05/06 07:27:35;;;;;;;38.45;31.75;;;;;;;15.11;77.94;101264.61;1716580;83;26168;-78
2022/05/06 07:30:04;;;;;;;37.55;30.72;;;;;;;15.22;78.06;101265.91;1717497;83;27922;-77
2022/05/06 07:32:30;;;;;;;37.75;32.50;;;;;;;15.33;77.28;101266.69;1701989;83;25750;-77
2022/05/06 07:34:56;;;;;;;38.45;33.30;;;;;;;;;;1689492;83;25796;-77
2022/05/06 07:37:22;;;;;;;41.75;35.13;;;;;;;15.62;77.05;101271.80;1713722;83;25825;-77
2022/05/06 07:39:51;;;;;;;38.45;34.33;;;;;;;15.77;77.28;101274.32;1715439;83;25799;-77
2022/05/06 07:42:17;;;;;;;35.48;31.55;;;;;;;15.86;76.04;101278.51;1716384;83;27706;-78
2022/05/06 07:44:43;;;;;;;39.53;33.48;;;;;;;15.87;75.02;101281.51;1717359;83;25863;-77
2022/05/06 07:47:09;;;;;;;35.80;31.95;;;;;;;15.81;74.70;101281.81;1717339;83;25847;-77
2022/05/06 07:49:35;;;;;;;38.70;33.18;;;;;;;15.85;74.73;101287.13;1717299;82;25884;-77
2022/05/06 07:52:02;;;;;;;39.48;34.85;;;;;;;15.93;74.76;101280.71;1717066;83;25887;-77
2022/05/06 07:54:28;;;;;;;35.78;29.52;;;;;;;15.97;74.66;101278.72;1717580;83;27459;-77
2022/05/06 07:56:54;;;;;;;44.27;35.10;;;;;;;16.02;73.49;101287.05;1717233;83;25781;-77
2022/05/06 07:59:21;;;;;;;40.40;35.17;;;;;;;16.04;73.93;101284.14;1717427;83;25872;-77
2022/05/06 08:04:36;;;;;;;38.65;33.38;;;;;;;16.28;74.09;101277.30;1717443;83;25298;-77
2022/05/06 08:07:05;;;;;;;38.98;33.05;;;;;;;16.37;72.75;101279.61;1717453;83;27825;-77
2022/05/06 08:09:33;;;;;;;39.48;34.43;;;;;;;16.48;72.89;101284.91;1706848;81;25825;-77
2022/05/06 08:11:59;;;;;;;40.30;35.55;;;;;;;16.58;72.91;101278.06;1698870;83;25817;-78
2022/05/06 08:14:26;;;;;;;36.73;32.67;;;;;;;16.71;72.92;101297.00;1691218;82;25938;-77
2022/05/06 08:16:52;;;;;;;36.38;31.17;;;;;;;16.75;72.01;101282.00;1716870;83;26069;-77
2022/05/06 08:19:20;;;;;;;37.15;33.08;;;;;;;16.78;71.36;101282.11;1717102;83;28011;-77
2022/05/06 08:21:46;;;;;;;39.23;34.48;;;;;;;16.78;71.34;101279.41;1716992;83;25937;-77
2022/05/06 08:24:12;;;;;;;39.30;33.67;;;;;;;16.88;72.16;101286.55;1717647;83;26288;-77
2022/05/06 08:26:39;;;;;;;39.03;32.05;;;;;;;16.94;70.53;101281.64;1714159;83;25773;-77
2022/05/06 08:29:05;;;;;;;42.43;35.28;;;;;;;16.91;70.53;101281.55;1700202;82;25977;-77
2022/05/06 08:31:32;;;;;;;42.53;34.92;;;;;;;16.94;70.65;101285.19;1689876;83;27460;-77
2022/05/06 08:33:58;;;;;;;36.73;32.75;;;;;;;17.06;71.00;101288.61;1696963;83;26494;-77
2022/05/06 08:36:25;;;;;;;35.65;31.05;;;;;;;17.19;71.85;101284.00;1712449;83;25804;-77
2022/05/06 08:38:51;;;;;;;38.10;33.75;;;;;;;17.26;70.91;101289.36;1717438;82;25946;-77
2022/05/06 08:41:19;;;;;;;38.00;32.30;;;;;;;17.31;70.91;101289.05;1717014;83;26250;-77
2022/05/06 08:43:45;;;;;;;37.30;32.45;;;;;;;17.38;70.11;101288.51;1706126;83;27597;-77
2022/05/06 08:51:48;;;;;;;31.15;27.80;;;;;;;17.76;69.00;101286.36;1616379;87;26569;-77
2022/05/06 08:54:17;;;;;;;32.03;27.70;;;;;;;17.79;68.81;101290.84;1617082;88;25310;-77
2022/05/06 08:56:45;;;;;;;32.93;27.90;;;;;;;17.84;67.86;101284.75;1609718;87;27491;-77
2022/05/06 08:59:12;;;;;;;34.33;30.32;;;;;;;17.93;67.64;101282.94;1590162;89;25790;-77
2022/05/06 09:01:38;;;;;;;37.73;33.63;;;;;;;18.03;68.74;101290.57;1590108;89;25893;-77
2022/05/06 09:04:05;;;;;;;39.35;31.33;;;;;;;17.99;67.50;101292.06;1590258;89;25936;-77
2022/05/06 09:06:32;;;;;;;39.58;35.25;;;;;;;17.93;67.74;101287.00;1589937;89;25832;-77
2022/05/06 09:09:00;;;;;;;40.95;34.40;;;;;;;17.91;67.90;101295.88;1590378;89;28237;-78
2022/05/06 09:14:20;;;;;;;37.23;31.65;;;;;;;17.79;67.99;101286.78;1589960;89;25875;-77
2022/05/06 09:16:47;;;;;;;32.88;29.35;;;;;;;17.77;68.03;101293.47;1589896;88;26356;-77
2022/05/06 09:19:21;;;;;;;40.52;31.85;;;;;;;17.79;67.81;101301.69;1590139;89;25895;-77
2022/05/06 09:22:17;;;;;;;36.33;32.53;;;;;;;17.70;67.84;101302.46;1579447;89;28348;-77
2022/05/06 09:24:50;;;;;;;35.48;31.05;;;;;;;17.70;68.45;101301.63;1590082;89;25857;-77
2022/05/06 09:27:19;;;;;;;33.20;29.00;;;;;;;17.70;68.60;101302.98;1589926;88;25711;-78
2022/05/06 09:29:47;;;;;;;;;;;;;;;17.74;68.03;101302.84;1592405;89;25829;-77
2022/05/06 09:32:26;;;;;;;33.55;29.40;;;;;;;17.69;67.73;101304.02;1614080;88;25969;-77
2022/05/06 09:35:15;;;;;;;33.75;30.25;;;;;;;17.66;68.34;101306.62;1603787;88;27464;-77
2022/05/06 09:37:48;;;;;;;34.55;30.82;;;;;;;17.72;67.71;101310.37;1602405;88;44133;-77
2022/05/06 09:40:18;;;;;;;38.40;32.15;;;;;;;17.64;67.46;101306.56;1589826;89;25870;-78
2022/05/06 09:42:57;;;;;;;37.67;33.15;;;;;;;17.60;67.01;101309.36;1590422;89;26533;-78
2022/05/06 09:45:39;;;;;;;37.00;32.98;;;;;;;17.55;66.88;101308.68;1590039;89;25908;-77
2022/05/06 09:48:09;;;;;;;38.20;33.63;;;;;;;17.54;67.35;101310.23;1589935;88;28306;-77
2022/05/06 09:50:47;;;;;;;38.58;32.73;;;;;;;17.46;67.74;101309.09;1589682;89;25857;-78
2022/05/06 09:53:16;;;;;;;38.95;31.95;;;;;;;17.47;67.79;101310.22;1589986;89;26150;-78
2022/05/06 09:55:45;;;;;;;38.58;32.65;;;;;;;17.48;67.29;101318.67;1568186;90;25875;-77
2022/05/06 09:58:13;;;;;;;38.38;33.02;;;;;;;17.44;67.59;101320.15;1589893;88;25804;-77
2022/05/06 10:00:40;;;;;;;38.60;33.10;;;;;;;17.48;67.45;101319.19;1590202;89;27475;-77
2022/05/06 10:03:09;;;;;;;41.77;35.85;;;;;;;17.44;67.41;101321.50;1589765;89;25843;-77
2022/05/06 10:05:37;;;;;;;43.73;35.30;;;;;;;17.40;67.66;101325.69;1589914;89;25874;-77
2022/05/06 10:08:14;;;;;;;40.90;33.13;;;;;;;17.51;68.45;101322.31;1594284;88;25782;-77
2022/05/06 10:10:48;;;;;;;40.63;33.53;;;;;;;17.60;67.49;101318.84;1590410;88;25909;-77
2022/05/06 10:13:22;;;;;;;38.95;31.77;;;;;;;17.69;68.60;101314.34;1567128;90;27510;-78
2022/05/06 10:15:51;;;;;;;35.88;30.77;;;;;;;17.69;67.01;101316.20;1579052;89;25603;-77
2022/05/06 10:18:41;;;;;;;46.98;31.48;;;;;;;17.66;67.42;101316.66;1589866;89;26671;-77
2022/05/06 10:21:09;;;;;;;34.50;28.25;;;;;;;17.75;67.64;101315.88;1582209;89;25860;-77
2022/05/06 10:23:51;;;;;;;33.45;29.45;;;;;;;17.77;66.62;101311.88;1584028;89;26092;-77
2022/05/06 10:26:45;;;;;;;30.70;24.57;;;;;;;17.80;66.63;101320.11;1590317;88;28286;-77
2022/05/06 10:32:55;;;;;;;24.37;20.50;;;;;;;17.93;66.12;101308.69;1589955;89;25339;-77
2022/05/06 10:35:40;;;;;;;24.67;20.08;;;;;;;17.96;65.45;101315.04;1585902;89;25807;-77
2022/05/06 10:38:25;;;;;;;21.35;18.80;;;;;;;17.93;65.79;101314.63;1590286;89;25874;-78
2022/05/06 10:40:56;;;;;;;24.32;18.87;;;;;;;17.89;65.36;101310.17;1589886;89;28366;-78
2022/05/06 10:43:45;;;;;;;19.37;16.32;;;;;;;17.92;65.45;101314.33;1590264;89;25916;-77
2022/05/06 10:46:32;;;;;;;17.92;15.30;;;;;;;17.96;64.15;101309.62;1590049;90;25366;-77
2022/05/06 10:49:33;;;;;;;19.95;16.02;;;;;;;18.04;63.42;101313.94;1583862;89;25829;-78
2022/05/06 10:52:28;;;;;;;22.55;16.60;;;;;;;18.12;63.60;101309.60;1559489;91;26736;-78
2022/05/06 10:55:03;;;;;;;19.85;17.00;;;;;;;18.22;63.56;101308.06;1590453;89;27980;-77
2022/05/06 10:57:33;;;;;;;18.15;16.25;;;;;;;18.39;63.27;101302.95;1590102;88;25976;-77
2022/05/06 11:00:05;;;;;;;15.90;14.30;;;;;;;18.46;62.45;101299.16;1590173;89;25550;-78
2022/05/06 11:02:38;;;;;;;17.07;14.23;;;;;;;18.56;62.04;101299.19;1594752;89;26558;-78
2022/05/06 11:05:14;;;;;;;17.12;13.78;;;;;;;18.66;60.85;101294.92;1589744;89;25836;-77
2022/05/06 11:07:43;;;;;;;19.75;13.45;;;;;;;18.64;61.08;101300.27;1590418;88;28908;-78
2022/05/06 11:10:26;;;;;;;13.25;10.45;;;;;;;18.67;61.34;101302.55;1590446;89;25936;-78
2022/05/06 11:12:57;;;;;;;15.48;9.48;;;;;;;18.68;59.78;101302.83;1590092;89;26169;-77
2022/05/06 11:15:32;;;;;;;9.48;7.45;;;;;;;18.56;57.36;101308.69;1590020;89;25891;-77
2022/05/06 11:18:04;;;;;;;15.60;8.58;;;;;;;18.41;54.32;101301.66;1590224;89;25917;-77
2022/05/06 11:20:38;;;;;;;12.85;9.58;;;;;;;18.36;53.62;101292.53;1590446;89;27445;-78
2022/05/06 11:23:13;;;;;;;11.03;9.78;;;;;;;18.38;54.64;101293.98;1589317;90;26491;-77
2022/05/06 11:25:47;;;;;;;13.78;10.10;;;;;;;18.38;55.70;101293.98;1590182;89;25763;-77
2022/05/06 11:28:21;;;;;;;12.50;11.12;;;;;;;18.49;57.10;101289.75;1589730;88;25886;-77
2022/05/06 11:31:08;;;;;;;13.40;11.97;;;;;;;18.66;56.69;101280.00;1625106;82;26833;31
2022/05/06 11:36:48;;;;;;;18.15;12.95;;;;;;;18.78;55.10;101276.00;1686706;82;25820;-77
2022/05/06 11:39:14;;;;;;;15.25;12.05;;;;;;;18.83;57.78;101273.46;1732586;82;26026;-78
2022/05/06 11:41:40;;;;;;;15.85;11.08;;;;;;;18.94;56.44;101270.84;1745217;80;26622;-77
2022/05/06 11:44:07;;;;;;;9.95;8.95;;;;;;;19.03;57.78;101277.62;1735653;82;25841;-77
2022/05/06 11:49:25;;;;;;;8.38;7.47;;;;;;;19.27;53.13;101278.60;1760883;81;26187;-78
2022/05/06 11:51:54;;;;;;;13.70;7.40;;;;;;;19.31;52.77;101284.43;1761329;81;25794;-78
2022/05/06 11:54:21;;;;;;;10.15;7.35;;;;;;;19.30;50.64;101283.59;1761123;80;26234;-78
2022/05/06 11:56:48;;;;;;;8.45;5.60;;;;;;;19.32;50.98;101277.40;1760827;79;25937;-77
2022/05/06 11:59:16;;;;;;;15.60;7.05;;;;;;;19.36;51.45;101278.63;1761081;80;27453;-77
2022/05/06 12:01:42;;;;;;;8.60;6.47;;;;;;;19.48;51.47;101279.52;1747478;81;25931;-77
2022/05/06 12:04:10;;;;;;;9.53;5.85;;;;;;;19.60;50.08;101280.42;1760997;81;25817;-77
2022/05/06 12:06:41;;;;;;;10.23;5.22;;;;;;;19.62;51.49;101277.47;1761040;80;26691;-78